Time;durP1;ratioP1;P1;durP2;ratioP2;P2;SDS_P1;SDS_P2;PMS_P1;PMS_P2;Temp;Humidity;BMP_temperature;BMP_pressure;BME280_temperature;BME280_humidity;BME280_pressure;Samples;Min_cycle;Max_cycle;Signal;HPM_P1;HPM_P2
2023/06/07 00:01:12;;;;;;;4.87;2.60;;;19.80;60.80;;;;;;4937485;28;20041;-67
2023/06/07 00:03:38;;;;;;;4.82;2.80;;;19.70;60.80;;;;;;4978539;28;20117;-69
2023/06/07 00:06:05;;;;;;;5.30;2.58;;;19.70;60.80;;;;;;4966805;28;20199;-68
2023/06/07 00:08:31;;;;;;;5.32;2.97;;;19.70;60.90;;;;;;4962708;28;20031;-68
2023/06/07 00:10:57;;;;;;;6.80;2.87;;;19.70;61.00;;;;;;4964905;28;20050;-68
2023/06/07 00:13:23;;;;;;;5.97;2.92;;;19.60;61.10;;;;;;4958476;28;20239;-68
2023/06/07 00:15:49;;;;;;;6.53;3.10;;;19.60;61.30;;;;;;4951885;28;20125;-69
2023/06/07 00:18:16;;;;;;;5.93;3.00;;;19.60;62.20;;;;;;4958330;28;20479;-69
2023/06/07 00:20:45;;;;;;;3.50;2.33;;;19.60;61.30;;;;;;4980175;28;20334;-69
2023/06/07 00:23:13;;;;;;;5.10;2.60;;;19.60;61.50;;;;;;4982854;28;20038;-69
2023/06/07 00:25:39;;;;;;;3.83;2.50;;;19.50;61.50;;;;;;4953939;28;20065;-69
2023/06/07 00:28:05;;;;;;;5.50;2.80;;;19.60;61.40;;;;;;4982171;28;20065;-69
2023/06/07 00:30:31;;;;;;;4.18;2.75;;;19.50;61.40;;;;;;4950738;28;20239;-68
2023/06/07 00:32:58;;;;;;;5.10;2.63;;;19.50;62.20;;;;;;4958646;28;20029;-68
2023/06/07 00:35:23;;;;;;;4.40;2.70;;;19.40;61.70;;;;;;4975044;28;20030;-69
2023/06/07 00:37:49;;;;;;;4.55;2.75;;;19.40;61.80;;;;;;4979228;28;20049;-67
2023/06/07 00:40:15;;;;;;;4.97;2.80;;;19.30;61.80;;;;;;4970882;28;20247;-69
2023/06/07 00:42:41;;;;;;;4.90;2.72;;;19.30;61.90;;;;;;4966775;28;20124;-68
2023/06/07 00:45:07;;;;;;;6.15;2.53;;;19.30;61.90;;;;;;4945770;28;20155;-69
2023/06/07 00:47:35;;;;;;;4.20;2.67;;;19.30;62.10;;;;;;4977830;28;20564;-69
2023/06/07 00:50:02;;;;;;;5.28;2.78;;;19.30;62.10;;;;;;4958806;28;20030;-69
2023/06/07 00:52:28;;;;;;;5.38;2.95;;;19.20;62.20;;;;;;4976169;28;20497;-68
2023/06/07 00:54:54;;;;;;;5.97;2.70;;;19.20;62.20;;;;;;4975189;28;20029;-68
2023/06/07 00:57:21;;;;;;;5.13;2.57;;;19.20;62.40;;;;;;4963478;28;20885;-70
2023/06/07 00:59:47;;;;;;;5.50;2.72;;;19.10;62.20;;;;;;4976296;28;20034;-67
2023/06/07 01:02:14;;;;;;;5.70;3.00;;;19.10;62.30;;;;;;4935278;28;20037;-69
2023/06/07 01:04:42;;;;;;;7.05;3.20;;;19.10;62.50;;;;;;4963082;28;20125;-69
2023/06/07 01:07:08;;;;;;;4.78;2.70;;;19.00;62.70;;;;;;4980768;28;20041;-69
2023/06/07 01:09:35;;;;;;;4.90;2.87;;;18.90;62.50;;;;;;4982465;28;20019;-68
2023/06/07 01:12:05;;;;;;;4.78;2.78;;;18.90;62.80;;;;;;4968972;28;20049;-69
2023/06/07 01:14:32;;;;;;;4.63;3.05;;;18.90;63.00;;;;;;4970126;28;20058;-69
2023/06/07 01:17:02;;;;;;;6.13;2.97;;;18.90;63.00;;;;;;4948643;28;20042;-67
2023/06/07 01:19:29;;;;;;;5.28;3.00;;;18.80;62.90;;;;;;4958382;28;20030;-70
2023/06/07 01:22:06;;;;;;;5.03;2.80;;;18.80;63.20;;;;;;4977552;28;20041;-67
2023/06/07 01:24:35;;;;;;;5.13;2.67;;;18.70;63.90;;;;;;4983834;28;20579;-69
2023/06/07 01:27:03;;;;;;;5.60;3.10;;;18.60;63.10;;;;;;4952188;28;20021;-69
2023/06/07 01:29:30;;;;;;;6.68;3.38;;;18.60;63.30;;;;;;4968896;28;20031;-69
2023/06/07 01:31:59;;;;;;;5.38;2.90;;;18.60;63.40;;;;;;4939061;28;20033;-68
2023/06/07 01:34:25;;;;;;;4.10;2.80;;;18.60;63.50;;;;;;4979368;28;20186;-69
2023/06/07 01:36:55;;;;;;;6.28;3.10;;;18.60;63.50;;;;;;4960021;28;20033;-67
2023/06/07 01:39:22;;;;;;;5.82;3.10;;;18.50;63.60;;;;;;4977893;28;20057;-69
2023/06/07 01:41:50;;;;;;;5.45;3.05;;;18.50;63.60;;;;;;4980717;28;20088;-68
2023/06/07 01:44:16;;;;;;;4.82;2.95;;;18.40;63.70;;;;;;4956475;28;20655;-69
2023/06/07 01:46:43;;;;;;;6.70;3.20;;;18.40;63.60;;;;;;4979587;28;20093;-67
2023/06/07 01:49:08;;;;;;;4.78;2.75;;;18.40;63.70;;;;;;4953350;28;20261;-69
2023/06/07 01:51:35;;;;;;;4.85;2.97;;;18.30;63.70;;;;;;4958468;28;20089;-69
2023/06/07 01:54:01;;;;;;;5.15;2.88;;;18.30;63.90;;;;;;4979019;28;20027;-69
2023/06/07 01:56:48;;;;;;;5.00;3.13;;;18.20;64.00;;;;;;4979860;28;20117;-68
2023/06/07 01:59:42;;;;;;;5.37;2.90;;;18.20;64.40;;;;;;4967251;28;20506;-69
2023/06/07 02:02:27;;;;;;;5.10;3.00;;;18.20;65.60;;;;;;4973908;28;20232;-69
2023/06/07 02:05:03;;;;;;;4.68;2.80;;;18.10;64.50;;;;;;4942774;28;20037;-68
2023/06/07 02:07:35;;;;;;;6.22;2.75;;;18.10;64.20;;;;;;4958522;28;20034;-68
2023/06/07 02:10:02;;;;;;;4.57;2.90;;;18.00;64.40;;;;;;4974245;28;20287;-69
2023/06/07 02:12:30;;;;;;;5.10;2.90;;;18.00;64.40;;;;;;4977203;28;20018;-68
2023/06/07 02:14:58;;;;;;;4.85;2.72;;;18.00;64.50;;;;;;4962677;28;20033;-67
2023/06/07 02:17:24;;;;;;;5.07;3.00;;;17.90;64.50;;;;;;4952325;28;20042;-67
2023/06/07 02:19:50;;;;;;;5.57;2.80;;;17.90;64.60;;;;;;4947237;28;20771;-69
2023/06/07 02:22:16;;;;;;;6.82;3.28;;;17.90;64.70;;;;;;4958097;28;20046;-67
2023/06/07 02:24:42;;;;;;;5.37;2.90;;;17.90;64.70;;;;;;4959534;28;20049;-68
2023/06/07 02:27:08;;;;;;;5.95;2.78;;;17.90;64.90;;;;;;4958537;28;20030;-69
2023/06/07 02:29:35;;;;;;;6.38;3.00;;;17.90;65.10;;;;;;4961082;28;20022;-69
2023/06/07 02:32:01;;;;;;;6.40;3.10;;;17.90;65.20;;;;;;4972373;28;20034;-69
2023/06/07 02:34:29;;;;;;;7.22;3.20;;;17.80;65.20;;;;;;4980154;28;20029;-68
2023/06/07 02:36:55;;;;;;;5.80;3.00;;;17.80;65.40;;;;;;4926277;28;20068;-69
2023/06/07 02:39:21;;;;;;;5.78;3.13;;;17.80;65.20;;;;;;4976708;28;20037;-68
2023/06/07 02:41:47;;;;;;;5.30;2.93;;;17.80;65.30;;;;;;4975499;28;20682;-69
2023/06/07 02:44:13;;;;;;;4.72;2.85;;;17.80;65.40;;;;;;4978923;28;20095;-69
2023/06/07 02:46:39;;;;;;;5.60;3.20;;;17.80;65.40;;;;;;4957974;28;20758;-68
2023/06/07 02:49:05;;;;;;;5.75;3.05;;;17.80;65.50;;;;;;4977370;28;20026;-68
2023/06/07 02:51:31;;;;;;;6.03;3.37;;;17.80;65.50;;;;;;4945913;28;20030;-68
2023/06/07 02:53:57;;;;;;;5.85;2.92;;;17.80;65.50;;;;;;4954319;28;20118;-69
2023/06/07 02:56:23;;;;;;;5.30;3.25;;;17.70;65.40;;;;;;4970125;28;20131;-67
2023/06/07 02:58:49;;;;;;;5.90;2.90;;;17.70;65.70;;;;;;4977577;28;20600;-68
2023/06/07 03:01:16;;;;;;;6.03;3.10;;;17.70;65.60;;;;;;4962900;28;20034;-67
2023/06/07 03:03:42;;;;;;;5.53;3.20;;;17.70;65.90;;;;;;4973988;28;20034;-68
2023/06/07 03:06:09;;;;;;;4.70;2.80;;;17.60;65.80;;;;;;4979964;28;20026;-69
2023/06/07 03:08:36;;;;;;;6.30;3.03;;;17.60;65.70;;;;;;4925262;28;20018;-68
2023/06/07 03:11:02;;;;;;;6.45;3.20;;;17.50;65.70;;;;;;4979394;28;20038;-69
2023/06/07 03:13:27;;;;;;;5.57;3.00;;;17.50;65.80;;;;;;4978208;28;20154;-67
2023/06/07 03:15:53;;;;;;;5.70;2.63;;;17.50;65.90;;;;;;4980571;28;20033;-68
2023/06/07 03:18:19;;;;;;;4.47;2.70;;;17.40;66.10;;;;;;4967168;28;20061;-68
2023/06/07 03:20:47;;;;;;;4.93;2.83;;;17.40;66.90;;;;;;4976136;28;20213;-69
2023/06/07 03:23:13;;;;;;;4.75;2.85;;;17.40;66.10;;;;;;4948475;28;20026;-68
2023/06/07 03:25:40;;;;;;;4.38;3.10;;;17.40;66.30;;;;;;4954638;28;20286;-69
2023/06/07 03:28:05;;;;;;;5.20;3.00;;;17.30;66.30;;;;;;4979771;28;20252;-69
2023/06/07 03:30:31;;;;;;;5.60;3.22;;;17.30;66.30;;;;;;4975694;28;20073;-67
2023/06/07 03:32:57;;;;;;;4.90;2.83;;;17.30;66.40;;;;;;4969643;28;20037;-68
2023/06/07 03:35:23;;;;;;;6.32;2.90;;;17.30;66.50;;;;;;4978603;28;20030;-68
2023/06/07 03:37:48;;;;;;;5.78;3.10;;;17.20;66.40;;;;;;4976200;28;20242;-69
2023/06/07 03:40:15;;;;;;;4.90;3.00;;;17.20;66.40;;;;;;4946492;28;20049;-68
2023/06/07 03:42:41;;;;;;;4.97;2.90;;;17.30;66.60;;;;;;4975221;28;20350;-69
2023/06/07 03:45:07;;;;;;;4.38;2.88;;;17.20;66.60;;;;;;4961041;28;20688;-68
2023/06/07 03:47:33;;;;;;;4.53;2.63;;;17.20;66.70;;;;;;4962639;28;20039;-69
2023/06/07 03:49:59;;;;;;;5.77;3.20;;;17.20;66.80;;;;;;4977008;28;20034;-68
2023/06/07 03:52:25;;;;;;;5.28;3.00;;;17.20;66.80;;;;;;4980628;28;20018;-67
2023/06/07 03:54:51;;;;;;;6.25;3.10;;;17.20;66.80;;;;;;4951564;28;20030;-68
2023/06/07 03:57:17;;;;;;;5.13;2.80;;;17.20;66.80;;;;;;4966774;28;20108;-67
2023/06/07 03:59:43;;;;;;;4.88;2.80;;;17.10;66.80;;;;;;4970269;28;20235;-68
2023/06/07 04:02:09;;;;;;;5.40;3.20;;;17.10;66.90;;;;;;4981483;28;20083;-68
2023/06/07 04:04:35;;;;;;;5.87;2.93;;;17.10;66.90;;;;;;4963416;28;20045;-69
2023/06/07 04:07:01;;;;;;;5.57;3.20;;;17.10;67.00;;;;;;4979230;28;20082;-68
2023/06/07 04:09:27;;;;;;;5.38;3.17;;;17.00;67.00;;;;;;4943765;28;20160;-67
2023/06/07 04:11:53;;;;;;;7.30;2.83;;;17.00;67.10;;;;;;4971412;28;20027;-68
2023/06/07 04:14:18;;;;;;;4.72;2.85;;;17.00;67.10;;;;;;4967488;28;20113;-67
2023/06/07 04:16:44;;;;;;;6.15;3.10;;;17.00;67.20;;;;;;4978664;28;20263;-68
2023/06/07 04:19:10;;;;;;;5.20;3.20;;;16.90;67.40;;;;;;4964914;28;20165;-69
2023/06/07 04:21:36;;;;;;;4.80;2.80;;;16.90;67.30;;;;;;4978951;28;20258;-69
2023/06/07 04:24:04;;;;;;;4.97;3.15;;;17.00;67.60;;;;;;4982341;28;20030;-69
2023/06/07 04:26:31;;;;;;;4.45;2.80;;;16.90;67.60;;;;;;4947393;28;20402;-67
2023/06/07 04:28:58;;;;;;;5.53;3.13;;;16.90;67.70;;;;;;4980212;28;20034;-69
2023/06/07 04:31:29;;;;;;;5.13;2.90;;;16.90;67.80;;;;;;4983089;28;20072;-67
2023/06/07 04:33:57;;;;;;;5.15;3.15;;;16.90;67.80;;;;;;4976499;28;20109;-69
2023/06/07 04:36:25;;;;;;;4.45;3.00;;;17.00;67.80;;;;;;4971454;28;20509;-68
2023/06/07 04:38:58;;;;;;;4.68;2.88;;;16.90;67.70;;;;;;4978543;28;20015;-69
2023/06/07 04:41:32;;;;;;;4.53;3.10;;;16.90;67.80;;;;;;4959680;28;20030;-67
2023/06/07 04:44:03;;;;;;;6.47;3.20;;;16.90;67.80;;;;;;4980269;28;20057;-69
2023/06/07 04:46:30;;;;;;;5.13;2.97;;;16.90;68.00;;;;;;4979245;28;20062;-68
2023/06/07 04:48:57;;;;;;;4.93;2.80;;;17.00;68.10;;;;;;4980743;28;20023;-68
2023/06/07 04:51:26;;;;;;;6.18;3.15;;;16.90;68.10;;;;;;4965107;28;20094;-67
2023/06/07 04:53:58;;;;;;;5.80;3.20;;;16.90;68.30;;;;;;4978203;28;20252;-69
2023/06/07 04:56:27;;;;;;;6.57;3.17;;;17.00;68.40;;;;;;4963908;28;20030;-68
2023/06/07 04:58:55;;;;;;;5.35;2.95;;;17.00;68.70;;;;;;4951833;28;20038;-69
2023/06/07 05:01:22;;;;;;;6.53;3.60;;;17.00;68.20;;;;;;4936845;28;20440;-69
2023/06/07 05:03:49;;;;;;;4.57;3.13;;;17.00;68.20;;;;;;4978296;28;21056;-67
2023/06/07 05:06:17;;;;;;;6.43;2.80;;;17.10;68.30;;;;;;4945584;28;21187;-69
2023/06/07 05:08:43;;;;;;;6.20;3.22;;;17.10;68.40;;;;;;4981410;28;20489;-68
2023/06/07 05:11:09;;;;;;;5.68;3.15;;;17.00;68.10;;;;;;4980828;28;20084;-69
2023/06/07 05:13:35;;;;;;;5.43;3.50;;;17.00;68.20;;;;;;4947206;28;20065;-69
2023/06/07 05:16:01;;;;;;;8.13;3.47;;;17.10;68.20;;;;;;4937989;28;20326;-69
2023/06/07 05:18:27;;;;;;;6.30;2.90;;;17.00;68.30;;;;;;4981441;28;20046;-68
2023/06/07 05:20:53;;;;;;;5.38;3.35;;;17.00;68.30;;;;;;4950194;28;20042;-68
2023/06/07 05:23:19;;;;;;;5.93;3.30;;;17.10;68.40;;;;;;4977688;28;20072;-68
2023/06/07 05:25:45;;;;;;;5.43;3.30;;;17.10;68.50;;;;;;4981044;28;20080;-68
2023/06/07 05:28:12;;;;;;;5.65;3.22;;;17.10;68.70;;;;;;4944523;28;20061;-69
2023/06/07 05:30:38;;;;;;;8.13;3.37;;;17.10;68.60;;;;;;4982432;28;20034;-68
2023/06/07 05:33:06;;;;;;;5.57;3.17;;;17.10;68.90;;;;;;4976101;28;20097;-69
2023/06/07 05:35:32;;;;;;;6.10;3.30;;;17.20;69.00;;;;;;4979529;28;20039;-69
2023/06/07 05:37:58;;;;;;;6.22;3.50;;;17.20;69.20;;;;;;4942396;28;20038;-69
2023/06/07 05:40:24;;;;;;;6.00;3.70;;;17.20;68.90;;;;;;4978000;28;20030;-69
2023/06/07 05:42:50;;;;;;;5.50;3.30;;;17.30;69.00;;;;;;4977775;28;20280;-68
2023/06/07 05:45:18;;;;;;;5.40;3.40;;;17.30;69.00;;;;;;4934037;28;20041;-69
2023/06/07 05:47:45;;;;;;;6.35;3.40;;;17.30;69.20;;;;;;4974125;28;20030;-68
2023/06/07 05:50:11;;;;;;;5.25;3.22;;;17.40;69.00;;;;;;4979841;28;20335;-69
2023/06/07 05:52:39;;;;;;;6.43;3.20;;;17.40;69.30;;;;;;4962605;28;20073;-68
2023/06/07 05:55:06;;;;;;;5.28;3.10;;;17.50;69.30;;;;;;4956341;28;20354;-69
2023/06/07 05:57:32;;;;;;;6.13;3.30;;;17.60;69.30;;;;;;4975769;28;20069;-69
2023/06/07 05:59:57;;;;;;;6.30;3.38;;;17.60;69.20;;;;;;4943009;28;20860;-69
2023/06/07 06:02:24;;;;;;;5.73;3.20;;;17.70;69.30;;;;;;4963598;28;20026;-69
2023/06/07 06:04:53;;;;;;;5.57;3.00;;;17.70;69.30;;;;;;4970781;28;20469;-67
2023/06/07 06:07:19;;;;;;;5.38;3.33;;;17.80;69.30;;;;;;4958312;28;20105;-69
2023/06/07 06:09:45;;;;;;;6.55;3.42;;;17.90;69.10;;;;;;4960422;28;20485;-68
2023/06/07 06:12:11;;;;;;;5.35;3.00;;;17.90;69.10;;;;;;4963346;28;20694;-68
2023/06/07 06:14:38;;;;;;;5.90;3.30;;;17.90;69.30;;;;;;4977623;28;20018;-68
2023/06/07 06:17:05;;;;;;;8.32;3.50;;;18.00;69.40;;;;;;4943942;28;20680;-68
2023/06/07 06:19:31;;;;;;;6.07;3.35;;;18.10;69.60;;;;;;4971477;28;20839;-69
2023/06/07 06:21:57;;;;;;;6.28;3.63;;;18.20;69.30;;;;;;4961293;28;20275;-69
2023/06/07 06:24:23;;;;;;;7.00;3.30;;;18.20;69.20;;;;;;4954344;28;20065;-69
2023/06/07 06:26:50;;;;;;;5.82;3.50;;;18.30;69.20;;;;;;4968923;28;20053;-68
2023/06/07 06:29:16;;;;;;;6.85;3.63;;;18.40;69.40;;;;;;4972057;28;20117;-69
2023/06/07 06:31:43;;;;;;;5.10;3.43;;;18.50;69.40;;;;;;4945907;28;20030;-68
2023/06/07 06:34:09;;;;;;;8.43;3.60;;;18.50;69.40;;;;;;4968008;28;20034;-70
2023/06/07 06:36:36;;;;;;;5.78;3.50;;;18.60;69.40;;;;;;4969199;28;20034;-68
2023/06/07 06:39:03;;;;;;;7.25;3.92;;;18.70;69.20;;;;;;4941409;28;20485;-69
2023/06/07 06:41:30;;;;;;;8.43;4.30;;;18.80;69.00;;;;;;4949291;28;20025;-69
2023/06/07 06:43:56;;;;;;;6.78;3.95;;;18.90;68.70;;;;;;4954590;28;20039;-67
2023/06/07 06:46:21;;;;;;;6.68;4.22;;;18.90;68.70;;;;;;4972598;28;20049;-69
2023/06/07 06:48:47;;;;;;;7.63;3.53;;;18.90;68.50;;;;;;4924679;28;20038;-69
2023/06/07 06:51:13;;;;;;;7.20;3.70;;;19.00;68.40;;;;;;4972991;28;20363;-68
2023/06/07 06:53:39;;;;;;;7.60;3.58;;;19.00;68.20;;;;;;4941945;28;20030;-67
2023/06/07 06:56:06;;;;;;;7.85;3.80;;;19.00;68.20;;;;;;4960630;28;20230;-69
2023/06/07 06:58:34;;;;;;;7.10;4.20;;;19.00;68.20;;;;;;4957157;28;20037;-68
2023/06/07 07:01:04;;;;;;;6.50;3.80;;;19.00;68.20;;;;;;4972519;28;20058;-68
2023/06/07 07:03:30;;;;;;;7.28;3.90;;;19.00;68.60;;;;;;4942192;28;20033;-68
2023/06/07 07:05:56;;;;;;;8.07;4.30;;;19.10;68.90;;;;;;4966074;28;20468;-69
2023/06/07 07:08:23;;;;;;;7.82;3.97;;;19.20;69.00;;;;;;4965322;28;20162;-69
2023/06/07 07:10:49;;;;;;;5.63;3.58;;;19.30;69.00;;;;;;4950850;28;20061;-69
2023/06/07 07:13:15;;;;;;;5.57;3.17;;;19.30;68.90;;;;;;4956789;28;20658;-69
2023/06/07 07:15:41;;;;;;;6.30;3.70;;;19.40;68.70;;;;;;4975030;28;20518;-68
2023/06/07 07:18:10;;;;;;;6.13;3.80;;;19.50;68.50;;;;;;4977762;28;20085;-69
2023/06/07 07:20:36;;;;;;;6.57;3.72;;;19.60;68.50;;;;;;4941004;28;20608;-69
2023/06/07 07:23:03;;;;;;;8.60;4.03;;;19.70;68.30;;;;;;4981215;28;20370;-69
2023/06/07 07:25:29;;;;;;;7.40;3.50;;;19.70;68.00;;;;;;4948809;28;20438;-69
2023/06/07 07:27:55;;;;;;;6.38;3.50;;;19.80;67.80;;;;;;4977005;28;20152;-68
2023/06/07 07:30:20;;;;;;;6.05;3.50;;;19.80;67.80;;;;;;4979636;28;20093;-68
2023/06/07 07:32:46;;;;;;;6.80;3.38;;;19.80;67.80;;;;;;4967941;28;20088;-69
2023/06/07 07:35:12;;;;;;;6.30;3.23;;;19.90;67.90;;;;;;4926737;28;20025;-68
2023/06/07 07:37:39;;;;;;;7.10;3.30;;;19.90;68.00;;;;;;4976446;28;20282;-69
2023/06/07 07:40:08;;;;;;;7.47;3.63;;;20.00;68.10;;;;;;4971722;28;20050;-69
2023/06/07 07:42:34;;;;;;;5.57;3.17;;;20.10;68.10;;;;;;4937015;28;20251;-69
2023/06/07 07:45:01;;;;;;;6.35;3.55;;;20.20;68.00;;;;;;4958134;28;20050;-69
2023/06/07 07:47:26;;;;;;;6.20;3.60;;;20.20;67.90;;;;;;4966211;28;20080;-69
2023/06/07 07:49:52;;;;;;;6.90;3.60;;;20.30;67.80;;;;;;4944504;28;20029;-69
2023/06/07 07:52:18;;;;;;;6.53;4.05;;;20.30;67.60;;;;;;4976683;28;20019;-68
2023/06/07 07:54:44;;;;;;;5.95;3.65;;;20.50;67.60;;;;;;4969862;28;20686;-69
2023/06/07 07:57:10;;;;;;;6.80;3.43;;;20.50;67.90;;;;;;4960333;28;20464;-68
2023/06/07 07:59:36;;;;;;;5.32;3.38;;;20.70;68.60;;;;;;4969389;28;20101;-70
2023/06/07 08:02:03;;;;;;;5.75;3.65;;;20.90;69.00;;;;;;4979706;28;20097;-69
2023/06/07 08:04:30;;;;;;;5.57;3.53;;;21.10;70.00;;;;;;4927886;28;20026;-69
2023/06/07 08:06:56;;;;;;;7.10;3.45;;;21.50;70.90;;;;;;4972881;28;20038;-69
2023/06/07 08:09:21;;;;;;;4.55;3.30;;;21.90;70.60;;;;;;4970862;28;20026;-68
2023/06/07 08:11:47;;;;;;;5.93;3.33;;;22.40;70.40;;;;;;4956871;28;20053;-69
2023/06/07 08:14:15;;;;;;;5.03;3.17;;;22.80;70.50;;;;;;4985493;28;20092;-67
2023/06/07 08:16:40;;;;;;;6.15;3.67;;;23.30;70.40;;;;;;4970487;28;20130;-69
2023/06/07 08:19:07;;;;;;;7.07;3.70;;;23.70;70.10;;;;;;4978570;28;20037;-69
2023/06/07 08:21:33;;;;;;;5.82;3.25;;;24.10;69.60;;;;;;4947400;28;20603;-68
2023/06/07 08:24:00;;;;;;;4.85;3.45;;;24.50;68.60;;;;;;4982183;28;20049;-69
2023/06/07 08:26:26;;;;;;;4.53;3.30;;;24.90;67.00;;;;;;4952322;28;20677;-68
2023/06/07 08:28:52;;;;;;;4.95;3.38;;;25.00;65.90;;;;;;4963907;28;20497;-70
2023/06/07 08:31:18;;;;;;;5.87;3.63;;;25.20;65.70;;;;;;4965261;28;20065;-69
2023/06/07 08:33:44;;;;;;;5.63;3.65;;;25.50;65.20;;;;;;4978073;28;20654;-69
2023/06/07 08:36:10;;;;;;;5.60;3.60;;;25.60;64.20;;;;;;4949499;28;20043;-68
2023/06/07 08:38:39;;;;;;;4.83;3.73;;;25.70;63.40;;;;;;4976459;28;20027;-69
2023/06/07 08:41:05;;;;;;;5.50;3.78;;;25.70;62.30;;;;;;4964652;28;20019;-69
2023/06/07 08:43:31;;;;;;;6.65;3.05;;;25.80;62.70;;;;;;4955672;28;20745;-69
2023/06/07 08:45:58;;;;;;;5.40;3.20;;;25.80;62.50;;;;;;4962245;28;20038;-70
2023/06/07 08:48:25;;;;;;;6.10;3.53;;;25.90;62.40;;;;;;4976422;28;20137;-68
2023/06/07 08:50:54;;;;;;;5.28;3.33;;;26.00;62.20;;;;;;4981598;28;20030;-70
2023/06/07 08:53:27;;;;;;;5.53;3.60;;;26.10;62.50;;;;;;4948401;28;20613;-68
2023/06/07 08:55:54;;;;;;;5.40;3.45;;;26.40;62.30;;;;;;4979349;28;20212;-69
2023/06/07 08:58:24;;;;;;;6.37;3.37;;;26.70;63.70;;;;;;4950196;28;20689;-68
2023/06/07 09:00:51;;;;;;;4.93;3.38;;;27.10;63.90;;;;;;4956814;28;20015;-69
2023/06/07 09:03:17;;;;;;;5.03;3.30;;;27.50;63.60;;;;;;4974364;28;20495;-69
2023/06/07 09:05:43;;;;;;;5.78;3.50;;;27.90;63.10;;;;;;4975945;28;20058;-69
2023/06/07 09:08:09;;;;;;;8.83;4.13;;;28.20;61.30;;;;;;4948919;28;20040;-68
2023/06/07 09:10:35;;;;;;;4.85;3.30;;;28.40;60.30;;;;;;4980568;28;20026;-69
2023/06/07 09:13:00;;;;;;;5.72;3.55;;;28.70;60.20;;;;;;4966309;28;20037;-69
2023/06/07 09:15:27;;;;;;;5.73;3.83;;;28.90;59.70;;;;;;4948331;28;20033;-68
2023/06/07 09:17:54;;;;;;;6.13;3.90;;;29.10;59.40;;;;;;4979244;28;20433;-69
2023/06/07 09:20:22;;;;;;;4.55;3.53;;;29.30;58.20;;;;;;4960463;28;20255;-68
2023/06/07 09:23:06;;;;;;;6.93;3.30;;;29.50;57.70;;;;;;4936301;28;20052;-69
2023/06/07 09:25:32;;;;;;;6.93;3.67;;;29.60;56.80;;;;;;4969241;28;20026;-70
2023/06/07 09:27:59;;;;;;;5.90;3.35;;;29.80;57.70;;;;;;4968184;28;20442;-69
2023/06/07 09:30:25;;;;;;;4.80;3.47;;;30.00;57.30;;;;;;4960018;28;20039;-68
2023/06/07 09:32:51;;;;;;;5.88;3.60;;;30.20;56.80;;;;;;4978777;28;20907;-70
2023/06/07 09:35:21;;;;;;;5.40;3.60;;;30.40;56.30;;;;;;4978747;28;20023;-69
2023/06/07 09:37:51;;;;;;;7.57;3.50;;;30.60;56.10;;;;;;4959854;28;20069;-68
2023/06/07 09:40:18;;;;;;;5.65;3.55;;;30.80;55.20;;;;;;4958478;28;20713;-69
2023/06/07 09:42:44;;;;;;;5.47;3.70;;;31.00;55.50;;;;;;4977597;28;20181;-68
2023/06/07 09:45:10;;;;;;;5.07;3.47;;;31.20;54.90;;;;;;4948581;28;20948;-70
2023/06/07 09:47:36;;;;;;;6.50;3.67;;;31.40;54.70;;;;;;4979277;28;20110;-70
2023/06/07 09:50:12;;;;;;;4.17;3.37;;;31.60;54.50;;;;;;4968928;28;20054;-68
2023/06/07 09:52:40;;;;;;;5.55;3.63;;;31.70;52.00;;;;;;4970264;28;20055;-69
2023/06/07 09:55:07;;;;;;;5.18;3.75;;;31.90;52.10;;;;;;4940876;28;20026;-70
2023/06/07 09:57:35;;;;;;;6.32;3.47;;;31.90;51.70;;;;;;4977762;28;20045;-69
2023/06/07 10:00:14;;;;;;;4.55;3.63;;;31.90;51.40;;;;;;4964962;28;20124;-68
2023/06/07 10:02:42;;;;;;;4.33;3.00;;;31.90;50.90;;;;;;4956714;28;20060;-69
2023/06/07 10:05:09;;;;;;;5.50;3.50;;;32.00;51.90;;;;;;4976236;28;20023;-69
2023/06/07 10:07:59;;;;;;;5.55;3.33;;;32.20;51.40;;;;;;4968377;28;20057;-69
2023/06/07 10:10:26;;;;;;;4.70;3.35;;;32.30;50.50;;;;;;4949489;28;20567;-70
2023/06/07 10:12:53;;;;;;;5.35;3.42;;;32.50;50.90;;;;;;4974241;28;20033;-68
2023/06/07 10:15:24;;;;;;;5.23;3.57;;;32.70;50.90;;;;;;4962227;28;20270;-69
2023/06/07 10:17:53;;;;;;;4.97;3.60;;;32.90;50.10;;;;;;4939929;28;20074;-68
2023/06/07 10:20:30;;;;;;;5.43;3.58;;;33.10;49.60;;;;;;4948845;28;20041;-70
2023/06/07 10:23:01;;;;;;;5.03;3.60;;;33.20;49.10;;;;;;4926479;28;20034;-68
2023/06/07 10:25:31;;;;;;;6.55;3.35;;;33.40;49.30;;;;;;4923875;28;20190;-70
2023/06/07 10:28:32;;;;;;;5.03;3.50;;;33.60;49.10;;;;;;4931078;28;20039;-69
2023/06/07 10:31:05;;;;;;;4.38;3.22;;;33.80;49.30;;;;;;4927927;28;20057;-69
2023/06/07 10:33:35;;;;;;;4.80;3.38;;;34.00;48.80;;;;;;4944888;28;20108;-69
2023/06/07 10:36:01;;;;;;;4.00;3.30;;;34.30;49.10;;;;;;4953193;28;20039;-70
2023/06/07 10:38:30;;;;;;;4.25;3.60;;;34.50;49.00;;;;;;4945316;28;20018;-69
2023/06/07 10:40:58;;;;;;;6.10;3.97;;;34.70;47.00;;;;;;4926078;28;20070;-70
2023/06/07 10:43:27;;;;;;;5.90;4.15;;;34.80;46.80;;;;;;4950388;28;20038;-69
2023/06/07 10:46:20;;;;;;;5.38;3.55;;;34.90;46.50;;;;;;4940386;28;20097;-70
2023/06/07 10:48:46;;;;;;;4.70;3.33;;;35.00;46.40;;;;;;4918189;28;20035;-68
2023/06/07 10:51:12;;;;;;;4.60;3.38;;;35.10;46.50;;;;;;4952723;28;20125;-69
2023/06/07 10:53:55;;;;;;;5.17;3.77;;;35.10;45.50;;;;;;4940897;28;20047;-69
2023/06/07 10:56:30;;;;;;;5.00;3.72;;;35.20;44.10;;;;;;4921733;28;20567;-69
2023/06/07 10:59:20;;;;;;;4.25;3.35;;;35.30;44.80;;;;;;4916528;28;20038;-69
2023/06/07 11:01:49;;;;;;;4.53;3.45;;;35.40;44.40;;;;;;4941543;28;20077;-68
2023/06/07 11:04:37;;;;;;;9.25;3.60;;;35.40;44.50;;;;;;4923381;28;21052;-69
2023/06/07 11:07:28;;;;;;;5.80;3.30;;;35.50;43.70;;;;;;4947081;28;20162;-69
2023/06/07 11:10:17;;;;;;;4.53;3.28;;;35.40;42.20;;;;;;4936942;28;20019;-68
2023/06/07 11:12:46;;;;;;;5.03;3.45;;;35.20;42.40;;;;;;4921239;28;20039;-69
2023/06/07 11:15:17;;;;;;;4.95;3.15;;;34.90;41.80;;;;;;4949603;28;20035;-69
2023/06/07 11:17:54;;;;;;;5.20;3.20;;;34.60;41.40;;;;;;4956151;28;20512;-69
2023/06/07 11:20:35;;;;;;;5.33;3.30;;;34.30;41.30;;;;;;4950427;28;20034;-70
2023/06/07 11:23:27;;;;;;;5.68;3.40;;;33.90;41.60;;;;;;4977301;28;20339;-69
2023/06/07 11:26:00;;;;;;;4.57;3.33;;;33.60;41.50;;;;;;4958149;28;20081;-68
2023/06/07 11:28:31;;;;;;;4.32;3.03;;;33.30;42.00;;;;;;4942713;28;20015;-70
2023/06/07 11:30:58;;;;;;;4.47;3.13;;;33.00;42.10;;;;;;4964518;28;20255;-68
2023/06/07 11:33:25;;;;;;;5.70;3.10;;;32.80;42.70;;;;;;4978957;28;20019;-69
2023/06/07 11:35:52;;;;;;;4.07;3.15;;;32.80;43.80;;;;;;4950520;28;20023;-68
2023/06/07 11:38:19;;;;;;;6.22;3.35;;;32.80;44.60;;;;;;4968170;28;20026;-69
2023/06/07 11:40:45;;;;;;;5.28;3.53;;;33.00;45.10;;;;;;4954765;28;20034;-68
2023/06/07 11:43:12;;;;;;;5.43;3.63;;;33.30;44.80;;;;;;4938434;28;20022;-69
2023/06/07 11:45:42;;;;;;;5.67;3.63;;;33.60;44.90;;;;;;4969939;28;20037;-69
2023/06/07 11:48:08;;;;;;;4.70;3.35;;;33.90;44.50;;;;;;4955095;28;20208;-70
2023/06/07 11:50:36;;;;;;;4.22;3.47;;;34.20;44.70;;;;;;4943263;28;20202;-70
2023/06/07 11:53:02;;;;;;;4.68;3.08;;;34.50;44.30;;;;;;4947611;28;20926;-69
2023/06/07 11:55:27;;;;;;;4.80;3.00;;;34.80;44.20;;;;;;4946064;28;20030;-70
2023/06/07 11:57:53;;;;;;;4.80;2.95;;;35.00;43.80;;;;;;4960415;28;20540;-69
2023/06/07 12:00:21;;;;;;;4.35;3.47;;;35.30;43.60;;;;;;4945469;28;20042;-70
2023/06/07 12:02:48;;;;;;;4.28;3.70;;;35.50;43.00;;;;;;4953370;28;20039;-70
2023/06/07 12:05:14;;;;;;;3.87;3.00;;;35.70;42.50;;;;;;4961885;28;22895;-70
2023/06/07 12:07:41;;;;;;;3.30;2.65;;;35.90;42.30;;;;;;4920798;28;20037;-69
2023/06/07 12:10:10;;;;;;;4.70;3.30;;;36.10;41.50;;;;;;4969710;28;20042;-70
2023/06/07 12:12:37;;;;;;;4.30;3.22;;;36.20;41.20;;;;;;4948594;28;20042;-70
2023/06/07 12:15:04;;;;;;;4.38;3.38;;;36.20;40.90;;;;;;4939545;28;20061;-70
2023/06/07 12:17:36;;;;;;;4.10;2.87;;;36.20;40.30;;;;;;4980882;28;20130;-70
2023/06/07 12:20:12;;;;;;;4.20;3.10;;;36.20;39.60;;;;;;4959683;28;20025;-70
2023/06/07 12:22:38;;;;;;;3.85;2.65;;;36.10;39.10;;;;;;4945026;28;20037;-70
2023/06/07 12:25:15;;;;;;;3.45;2.75;;;36.00;39.80;;;;;;4971569;28;20176;-70
2023/06/07 12:27:45;;;;;;;3.83;2.78;;;35.80;38.90;;;;;;4940117;28;20952;-69
2023/06/07 12:30:11;;;;;;;3.33;2.80;;;35.50;38.70;;;;;;4970162;28;20029;-70
2023/06/07 12:32:37;;;;;;;4.45;2.67;;;35.20;38.50;;;;;;4949085;28;20042;-70
2023/06/07 12:35:07;;;;;;;3.92;2.45;;;34.90;38.40;;;;;;4962846;28;20327;-70
2023/06/07 12:37:37;;;;;;;2.88;2.40;;;34.50;38.40;;;;;;4968775;28;20018;-70
2023/06/07 12:40:07;;;;;;;4.07;2.60;;;34.10;38.40;;;;;;4962494;28;20227;-70
2023/06/07 12:42:40;;;;;;;3.60;2.50;;;33.60;38.40;;;;;;4973737;28;20373;-69
2023/06/07 12:45:07;;;;;;;4.65;2.92;;;33.20;38.60;;;;;;4977166;28;20700;-70
2023/06/07 12:47:33;;;;;;;3.58;2.85;;;32.80;39.00;;;;;;4947564;28;20553;-70
2023/06/07 12:49:59;;;;;;;3.47;2.80;;;32.30;39.30;;;;;;4966947;28;20037;-70
2023/06/07 12:52:25;;;;;;;6.20;3.25;;;31.90;39.60;;;;;;4965897;28;20022;-70